Claremont, California
Current Conditions -  °F | °C
As of 7:53 AM on Friday 24 Oct 2014 (Local Time) from KONT Reporting Station
Clear Clear  
Wind Chill: 64°   Ceiling: Unl
Heat Index: 64°   Visibility: 10mi
Dew Point: 44°   Wind: 3mph
Humidity: 48%   Direction: 20°NNE
Pressure: 30.01"   Gusts: NA
Location:  34.1°N, 117.71°W
Report Text: KONT 241453Z 02003KT 10SM CLR 18/07 A3001 RMK AO2 SLP150 HZ ALF T01780067 53010
Loading
Personal Weather Stations






























Interactive Weather Map
Tropical Storm Tracking
New forecast layout! Learn more

10-Day Weather Forecast

Advertisements
Track Severe Weather on mobile